createdAt,value
2017-10-14T00:00:20.004Z,6.30
2017-10-14T00:02:47.585Z,6.80
2017-10-14T00:05:15.127Z,6.70
2017-10-14T00:07:42.714Z,7.80
2017-10-14T00:10:10.250Z,6.80
2017-10-14T00:12:37.819Z,5.93
2017-10-14T00:15:05.362Z,5.63
2017-10-14T00:17:32.974Z,5.50
2017-10-14T00:20:00.513Z,5.87
2017-10-14T00:22:28.085Z,7.10
2017-10-14T00:24:55.628Z,7.50
2017-10-14T00:27:23.288Z,9.67
2017-10-14T00:29:50.823Z,9.43
2017-10-14T00:32:18.420Z,9.83
2017-10-14T00:34:45.969Z,11.87
2017-10-14T00:37:13.565Z,10.80
2017-10-14T00:39:41.114Z,11.17
2017-10-14T00:42:08.653Z,19.70
2017-10-14T00:44:36.229Z,32.50
2017-10-14T00:47:03.780Z,12.53
2017-10-14T00:49:31.395Z,16.63
2017-10-14T00:51:58.983Z,15.80
2017-10-14T00:54:26.544Z,13.27
2017-10-14T00:56:54.115Z,13.30
2017-10-14T00:59:21.660Z,11.43
2017-10-14T01:01:49.244Z,10.03
2017-10-14T01:04:16.794Z,11.00
2017-10-14T01:06:44.331Z,11.57
2017-10-14T01:09:11.912Z,12.00
2017-10-14T01:11:39.460Z,11.03
2017-10-14T01:14:07.046Z,10.40
2017-10-14T01:16:34.591Z,9.90
2017-10-14T01:19:02.165Z,9.83
2017-10-14T01:21:29.707Z,8.27
2017-10-14T01:23:57.284Z,8.90
2017-10-14T01:26:24.897Z,7.97
2017-10-14T01:28:53.252Z,8.23
2017-10-14T01:31:20.794Z,8.40
2017-10-14T01:33:48.377Z,8.63
2017-10-14T01:36:15.970Z,9.03
2017-10-14T01:38:43.547Z,9.83
2017-10-14T01:41:11.082Z,7.27
2017-10-14T01:43:38.664Z,6.50
2017-10-14T01:46:06.203Z,6.80
2017-10-14T01:48:33.788Z,6.37
2017-10-14T01:51:01.372Z,5.70
2017-10-14T01:53:28.912Z,5.93
2017-10-14T01:55:56.485Z,4.87
2017-10-14T01:58:24.028Z,5.07
2017-10-14T02:00:51.604Z,4.87
2017-10-14T02:03:19.144Z,4.90
2017-10-14T02:05:46.715Z,5.07
2017-10-14T02:08:14.254Z,5.80
2017-10-14T02:10:41.833Z,5.50
2017-10-14T02:13:09.396Z,5.67
2017-10-14T02:15:36.974Z,6.30
2017-10-14T02:18:04.517Z,6.37
2017-10-14T02:20:32.101Z,6.13
2017-10-14T02:22:59.639Z,5.80
2017-10-14T02:25:27.216Z,5.90
2017-10-14T02:27:54.752Z,5.33
2017-10-14T02:30:22.333Z,6.07
2017-10-14T02:32:49.871Z,6.03
2017-10-14T02:35:17.775Z,8.70
2017-10-14T02:37:45.306Z,7.40
2017-10-14T02:40:12.877Z,7.37
2017-10-14T02:42:40.413Z,6.50
2017-10-14T02:45:07.984Z,5.43
2017-10-14T02:47:35.516Z,5.60
2017-10-14T02:50:03.094Z,4.53
2017-10-14T02:52:30.632Z,6.20
2017-10-14T02:54:58.209Z,7.20
2017-10-14T02:57:25.745Z,5.33
2017-10-14T02:59:53.321Z,7.03
2017-10-14T03:02:20.855Z,6.03
2017-10-14T03:04:49.208Z,5.47
2017-10-14T03:07:16.746Z,5.23
2017-10-14T03:09:44.275Z,5.10
2017-10-14T03:12:11.852Z,5.73
2017-10-14T03:14:39.396Z,5.00
2017-10-14T03:17:06.974Z,3.17
2017-10-14T03:19:34.508Z,3.47
2017-10-14T03:22:02.075Z,3.87
2017-10-14T03:24:29.612Z,4.20
2017-10-14T03:26:57.953Z,5.40
2017-10-14T03:29:25.503Z,4.73
2017-10-14T03:31:53.084Z,4.57
2017-10-14T03:34:20.616Z,6.10
2017-10-14T03:36:48.188Z,5.13
2017-10-14T03:39:15.721Z,4.43
2017-10-14T03:41:43.294Z,5.37
2017-10-14T03:44:10.832Z,4.53
2017-10-14T03:46:38.408Z,5.10
2017-10-14T03:49:05.944Z,5.20
2017-10-14T03:51:33.519Z,5.70
2017-10-14T03:54:01.060Z,10.73
2017-10-14T03:56:28.636Z,11.20
2017-10-14T03:58:56.175Z,10.03
2017-10-14T04:01:24.507Z,9.67
2017-10-14T04:03:52.045Z,6.73
2017-10-14T04:06:19.623Z,7.53
2017-10-14T04:08:47.158Z,8.90
2017-10-14T04:11:14.728Z,8.53
2017-10-14T04:13:42.267Z,8.17
2017-10-14T04:16:09.865Z,6.80
2017-10-14T04:18:37.411Z,7.47
2017-10-14T04:21:04.953Z,7.37
2017-10-14T04:23:32.528Z,5.73
2017-10-14T04:26:00.104Z,6.50
2017-10-14T04:28:27.643Z,4.77
2017-10-14T04:30:55.230Z,5.97
2017-10-14T04:33:22.776Z,5.00
2017-10-14T04:35:50.320Z,6.30
2017-10-14T04:38:17.903Z,5.47
2017-10-14T04:40:45.449Z,5.97
2017-10-14T04:43:13.023Z,6.00
2017-10-14T04:45:40.564Z,5.60
2017-10-14T04:48:08.445Z,4.17
2017-10-14T04:50:36.091Z,4.60
2017-10-14T04:53:03.665Z,5.07
2017-10-14T04:55:31.206Z,5.00
2017-10-14T04:57:58.782Z,4.10
2017-10-14T05:00:26.315Z,4.60
2017-10-14T05:02:53.888Z,4.60
2017-10-14T05:05:21.432Z,6.50
2017-10-14T05:07:49.008Z,5.97
2017-10-14T05:10:16.553Z,7.13
2017-10-14T05:12:44.124Z,4.70
2017-10-14T05:15:11.689Z,4.50
2017-10-14T05:17:39.225Z,4.07
2017-10-14T05:20:06.801Z,5.20
2017-10-14T05:22:34.384Z,4.80
2017-10-14T05:25:01.919Z,4.50
2017-10-14T05:27:29.493Z,5.53
2017-10-14T05:29:57.032Z,6.33
2017-10-14T05:32:24.608Z,7.13
2017-10-14T05:34:52.154Z,6.60
2017-10-14T05:37:19.733Z,5.20
2017-10-14T05:39:47.268Z,6.87
2017-10-14T05:42:14.837Z,4.93
2017-10-14T05:44:42.374Z,5.40
2017-10-14T05:47:09.959Z,5.03
2017-10-14T05:49:37.500Z,5.83
2017-10-14T05:52:05.841Z,6.20
2017-10-14T05:54:33.381Z,5.50
2017-10-14T05:57:00.988Z,5.93
2017-10-14T05:59:29.290Z,4.90
2017-10-14T06:01:56.823Z,5.13
2017-10-14T06:04:25.161Z,4.70
2017-10-14T06:06:52.704Z,4.60
2017-10-14T06:09:20.282Z,4.17
2017-10-14T06:11:47.816Z,5.00
2017-10-14T06:14:15.394Z,4.47
2017-10-14T06:16:42.928Z,4.17
2017-10-14T06:19:10.501Z,4.90
2017-10-14T06:21:38.042Z,5.07
2017-10-14T06:24:05.618Z,4.63
2017-10-14T06:26:33.152Z,4.60
2017-10-14T06:29:00.720Z,4.70
2017-10-14T06:31:28.257Z,4.93
2017-10-14T06:33:56.599Z,4.67
2017-10-14T06:36:24.134Z,4.30
2017-10-14T06:38:51.715Z,5.20
2017-10-14T06:41:19.257Z,5.60
2017-10-14T06:43:46.830Z,4.37
2017-10-14T06:46:14.368Z,4.47
2017-10-14T06:48:41.951Z,5.80
2017-10-14T06:51:09.492Z,5.10
2017-10-14T06:53:38.040Z,5.30
2017-10-14T06:56:06.355Z,6.03
2017-10-14T06:58:33.948Z,5.93
2017-10-14T07:01:01.503Z,7.50
2017-10-14T07:03:29.156Z,6.00
2017-10-14T07:05:56.762Z,8.33
2017-10-14T07:08:25.194Z,10.23
2017-10-14T07:10:52.732Z,11.27
2017-10-14T07:13:20.306Z,10.37
2017-10-14T07:15:48.672Z,8.13
2017-10-14T07:18:16.241Z,8.00
2017-10-14T07:20:43.918Z,7.63
2017-10-14T07:23:11.453Z,6.93
2017-10-14T07:25:39.028Z,7.60
2017-10-14T07:28:06.565Z,7.10
2017-10-14T07:30:34.137Z,7.07
2017-10-14T07:33:01.676Z,8.00
2017-10-14T07:35:29.248Z,7.90
2017-10-14T07:37:56.782Z,7.83
2017-10-14T07:40:25.120Z,7.80
2017-10-14T07:42:52.657Z,7.80
2017-10-14T07:45:20.233Z,6.33
2017-10-14T07:47:47.773Z,7.10
2017-10-14T07:50:15.347Z,6.90
2017-10-14T07:52:42.888Z,7.93
2017-10-14T07:55:10.557Z,7.63
2017-10-14T07:57:38.108Z,6.53
2017-10-14T08:00:05.677Z,6.10
2017-10-14T08:02:33.271Z,7.27
2017-10-14T08:05:00.808Z,6.47
2017-10-14T08:07:28.381Z,7.50
2017-10-14T08:09:55.958Z,6.97
2017-10-14T08:12:23.494Z,6.80
2017-10-14T08:14:51.037Z,9.37
2017-10-14T08:17:18.611Z,6.40
2017-10-14T08:19:46.157Z,6.90
2017-10-14T08:22:13.731Z,9.33
2017-10-14T08:24:41.273Z,9.57
2017-10-14T08:27:08.848Z,9.43
2017-10-14T08:29:36.393Z,16.00
2017-10-14T08:32:03.963Z,8.60
2017-10-14T08:34:31.521Z,7.70
2017-10-14T08:36:59.100Z,8.37
2017-10-14T08:39:26.647Z,8.37
2017-10-14T08:41:54.221Z,7.90
2017-10-14T08:44:21.762Z,8.50
2017-10-14T08:46:49.943Z,10.73
2017-10-14T08:49:17.482Z,7.43
2017-10-14T08:51:45.062Z,7.80
2017-10-14T08:54:12.602Z,7.30
2017-10-14T08:56:40.182Z,7.37
2017-10-14T08:59:07.717Z,7.53
2017-10-14T09:01:35.288Z,8.00
2017-10-14T09:04:02.845Z,6.53
2017-10-14T09:06:30.419Z,6.93
2017-10-14T09:08:57.965Z,7.63
2017-10-14T09:11:25.540Z,7.17
2017-10-14T09:13:53.082Z,7.90
2017-10-14T09:16:20.654Z,6.97
2017-10-14T09:18:48.212Z,6.30
2017-10-14T09:21:15.790Z,7.37
2017-10-14T09:23:43.369Z,7.13
2017-10-14T09:26:10.988Z,6.43
2017-10-14T09:28:38.573Z,6.27
2017-10-14T09:31:06.128Z,7.50
2017-10-14T09:33:33.708Z,8.47
2017-10-14T09:36:01.240Z,7.03
2017-10-14T09:38:28.803Z,6.40
2017-10-14T09:40:56.341Z,7.80
2017-10-14T09:43:23.923Z,6.47
2017-10-14T09:45:51.482Z,6.50
2017-10-14T09:48:19.012Z,6.40
2017-10-14T09:50:46.589Z,6.67
2017-10-14T09:53:14.131Z,6.03
2017-10-14T09:55:41.669Z,6.80
2017-10-14T09:58:10.016Z,7.37
2017-10-14T10:00:37.553Z,6.60
2017-10-14T10:03:05.133Z,6.00
2017-10-14T10:05:32.667Z,6.70
2017-10-14T10:08:00.228Z,6.27
2017-10-14T10:10:27.785Z,5.70
2017-10-14T10:12:55.373Z,5.43
2017-10-14T10:15:23.685Z,6.83
2017-10-14T10:17:51.989Z,5.10
2017-10-14T10:20:19.563Z,5.90
2017-10-14T10:22:47.151Z,5.00
2017-10-14T10:25:14.692Z,4.80
2017-10-14T10:27:42.239Z,5.27
2017-10-14T10:30:09.818Z,4.80
2017-10-14T10:32:37.388Z,5.30
2017-10-14T10:35:05.070Z,5.60
2017-10-14T10:37:33.368Z,5.70
2017-10-14T10:40:01.666Z,6.07
2017-10-14T10:42:29.238Z,4.87
2017-10-14T10:44:56.798Z,5.70
2017-10-14T10:47:24.356Z,4.70
2017-10-14T10:49:51.938Z,5.60
2017-10-14T10:52:19.513Z,4.77
2017-10-14T10:54:47.854Z,4.63
2017-10-14T10:57:15.384Z,5.13
2017-10-14T10:59:43.731Z,4.60
2017-10-14T11:02:11.264Z,4.00
2017-10-14T11:04:38.798Z,4.13
2017-10-14T11:07:06.372Z,4.13
2017-10-14T11:09:33.945Z,4.10
2017-10-14T11:12:01.477Z,3.40
2017-10-14T11:14:29.013Z,4.00
2017-10-14T11:16:57.347Z,3.77
2017-10-14T11:19:24.877Z,3.77
2017-10-14T11:21:52.467Z,3.50
2017-10-14T11:24:20.007Z,3.87
2017-10-14T11:26:47.536Z,3.43
2017-10-14T11:29:15.953Z,3.17
2017-10-14T11:31:43.481Z,3.70
2017-10-14T11:34:11.824Z,3.13
2017-10-14T11:36:40.119Z,3.30
2017-10-14T11:39:08.417Z,3.43
2017-10-14T11:41:36.254Z,3.20
2017-10-14T11:44:04.611Z,3.50
2017-10-14T11:46:32.149Z,3.43
2017-10-14T11:48:59.681Z,2.60
2017-10-14T11:51:27.234Z,2.87
2017-10-14T11:53:55.567Z,3.10
2017-10-14T11:56:23.256Z,3.13
2017-10-14T11:58:51.604Z,3.30
2017-10-14T12:01:19.132Z,3.13
2017-10-14T12:03:46.664Z,3.30
2017-10-14T12:06:14.996Z,3.40
2017-10-14T12:08:42.526Z,3.07
2017-10-14T12:11:10.116Z,2.67
2017-10-14T12:13:37.661Z,2.63
2017-10-14T12:16:05.189Z,3.20
2017-10-14T12:18:33.524Z,3.47
2017-10-14T12:21:01.062Z,3.10
2017-10-14T12:23:28.621Z,3.37
2017-10-14T12:25:56.197Z,3.17
2017-10-14T12:28:23.736Z,3.13
2017-10-14T12:30:51.271Z,3.20
2017-10-14T12:33:18.836Z,3.10
2017-10-14T12:35:46.399Z,3.43
2017-10-14T12:38:13.944Z,4.03
2017-10-14T12:40:42.277Z,3.40
2017-10-14T12:43:09.808Z,3.80
2017-10-14T12:45:37.386Z,2.90
2017-10-14T12:48:04.961Z,4.23
2017-10-14T12:50:32.492Z,3.33
2017-10-14T12:53:00.052Z,3.27
2017-10-14T12:55:27.620Z,3.00
2017-10-14T12:57:55.210Z,3.73
2017-10-14T13:00:22.740Z,3.30
2017-10-14T13:02:50.286Z,3.57
2017-10-14T13:05:17.870Z,3.40
2017-10-14T13:07:45.444Z,3.20
2017-10-14T13:10:12.976Z,3.50
2017-10-14T13:12:40.559Z,3.33
2017-10-14T13:15:08.088Z,3.63
2017-10-14T13:17:35.619Z,2.80
2017-10-14T13:20:03.948Z,2.80
2017-10-14T13:22:31.477Z,2.47
2017-10-14T13:24:59.064Z,2.80
2017-10-14T13:27:26.595Z,3.93
2017-10-14T13:29:54.125Z,3.60
2017-10-14T13:32:22.470Z,3.13
2017-10-14T13:34:50.000Z,3.40
2017-10-14T13:37:17.530Z,3.10
2017-10-14T13:39:45.857Z,2.97
2017-10-14T13:42:13.399Z,3.27
2017-10-14T13:44:40.968Z,3.17
2017-10-14T13:47:08.499Z,3.00
2017-10-14T13:49:36.065Z,3.20
2017-10-14T13:52:03.643Z,2.70
2017-10-14T13:54:31.172Z,2.97
2017-10-14T13:56:59.514Z,2.70
2017-10-14T13:59:27.102Z,2.80
2017-10-14T14:01:55.410Z,2.63
2017-10-14T14:04:22.954Z,2.50
2017-10-14T14:06:50.539Z,3.03
2017-10-14T14:09:18.202Z,3.20
2017-10-14T14:11:45.781Z,2.87
2017-10-14T14:14:13.411Z,2.70
2017-10-14T14:16:40.968Z,3.30
2017-10-14T14:19:08.538Z,3.10
2017-10-14T14:21:36.074Z,3.13
2017-10-14T14:24:04.403Z,4.13
2017-10-14T14:26:31.968Z,3.07
2017-10-14T14:28:59.493Z,3.50
2017-10-14T14:31:27.060Z,2.90
2017-10-14T14:33:55.643Z,3.27
2017-10-14T14:36:23.225Z,3.20
2017-10-14T14:38:50.759Z,4.80
2017-10-14T14:41:18.287Z,3.33
2017-10-14T14:43:45.851Z,3.50
2017-10-14T14:46:14.143Z,3.23
2017-10-14T14:48:41.709Z,3.20
2017-10-14T14:51:09.240Z,3.73
2017-10-14T14:53:37.661Z,3.70
2017-10-14T14:56:05.237Z,3.53
2017-10-14T14:58:32.767Z,3.20
2017-10-14T15:01:00.342Z,3.20
2017-10-14T15:03:27.875Z,3.60
2017-10-14T15:05:55.412Z,4.07
2017-10-14T15:08:23.768Z,4.37
2017-10-14T15:10:51.297Z,4.13
2017-10-14T15:13:18.840Z,4.67
2017-10-14T15:15:46.424Z,4.37
2017-10-14T15:18:13.959Z,4.60
2017-10-14T15:20:41.541Z,4.00
2017-10-14T15:23:09.117Z,4.17
2017-10-14T15:25:36.646Z,4.50
2017-10-14T15:28:04.204Z,4.10
2017-10-14T15:30:31.785Z,4.40
2017-10-14T15:32:59.316Z,4.00
2017-10-14T15:35:26.900Z,3.80
2017-10-14T15:37:54.432Z,4.60
2017-10-14T15:40:22.732Z,4.33
2017-10-14T15:42:50.310Z,3.70
2017-10-14T15:45:17.920Z,4.10
2017-10-14T15:47:46.215Z,4.50
2017-10-14T15:50:13.765Z,4.70
2017-10-14T15:52:42.056Z,4.40
2017-10-14T15:55:09.634Z,5.07
2017-10-14T15:57:37.168Z,4.50
2017-10-14T16:00:04.712Z,5.40
2017-10-14T16:02:33.047Z,4.90
2017-10-14T16:05:00.581Z,4.20
2017-10-14T16:07:28.166Z,4.77
2017-10-14T16:09:55.695Z,4.57
2017-10-14T16:12:23.228Z,5.27
2017-10-14T16:14:51.570Z,4.23
2017-10-14T16:17:19.105Z,4.13
2017-10-14T16:19:46.640Z,3.80
2017-10-14T16:22:14.207Z,3.90
2017-10-14T16:24:41.789Z,3.83
2017-10-14T16:27:09.338Z,3.40
2017-10-14T16:29:36.872Z,4.50
2017-10-14T16:32:05.205Z,3.00
2017-10-14T16:34:32.732Z,4.00
2017-10-14T16:37:00.317Z,3.27
2017-10-14T16:39:27.848Z,4.00
2017-10-14T16:41:55.390Z,4.77
2017-10-14T16:44:23.735Z,6.13
2017-10-14T16:46:51.289Z,13.10
2017-10-14T16:49:18.877Z,9.27
2017-10-14T16:51:47.204Z,10.70
2017-10-14T16:54:14.739Z,10.50
2017-10-14T16:56:42.313Z,12.20
2017-10-14T16:59:10.832Z,13.53
2017-10-14T17:01:38.425Z,18.13
2017-10-14T17:04:06.842Z,12.90
2017-10-14T17:06:40.766Z,10.90
2017-10-14T17:09:08.348Z,8.90
2017-10-14T17:11:35.877Z,8.40
2017-10-14T17:14:03.412Z,7.77
2017-10-14T17:16:30.993Z,7.70
2017-10-14T17:18:58.524Z,6.90
2017-10-14T17:21:26.826Z,6.80
2017-10-14T17:23:54.401Z,7.43
2017-10-14T17:26:21.941Z,6.90
2017-10-14T17:28:49.490Z,7.40
2017-10-14T17:31:17.073Z,6.50
2017-10-14T17:33:44.609Z,7.20
2017-10-14T17:36:12.143Z,6.30
2017-10-14T17:38:40.573Z,6.87
2017-10-14T17:41:08.114Z,6.43
2017-10-14T17:43:35.661Z,6.40
2017-10-14T17:46:03.995Z,6.03
2017-10-14T17:48:31.582Z,7.27
2017-10-14T17:50:59.883Z,8.50
2017-10-14T17:53:27.425Z,8.37
2017-10-14T17:55:55.772Z,9.00
2017-10-14T17:58:23.317Z,8.10
2017-10-14T18:00:50.854Z,9.43
2017-10-14T18:03:18.431Z,10.27
2017-10-14T18:05:45.968Z,9.90
2017-10-14T18:08:13.552Z,9.07
2017-10-14T18:10:41.079Z,9.57
2017-10-14T18:13:08.622Z,10.33
2017-10-14T18:15:36.976Z,10.40
2017-10-14T18:18:04.512Z,9.90
2017-10-14T18:20:32.043Z,9.13
2017-10-14T18:22:59.623Z,8.87
2017-10-14T18:25:27.240Z,10.50
2017-10-14T18:27:55.540Z,9.40
2017-10-14T18:30:23.072Z,9.53
2017-10-14T18:32:51.421Z,9.93
2017-10-14T18:35:18.957Z,9.90
2017-10-14T18:37:46.489Z,9.43
2017-10-14T18:40:14.073Z,10.20
2017-10-14T18:42:41.610Z,8.67
2017-10-14T18:45:09.204Z,10.07
2017-10-14T18:47:36.737Z,9.80
2017-10-14T18:50:04.312Z,9.33
2017-10-14T18:52:31.893Z,10.10
2017-10-14T18:54:59.448Z,9.67
2017-10-14T18:57:26.987Z,8.10
2017-10-14T18:59:54.557Z,7.47
2017-10-14T19:02:22.088Z,8.03
2017-10-14T19:04:49.672Z,8.93
2017-10-14T19:07:17.205Z,9.00
2017-10-14T19:09:45.546Z,9.23
2017-10-14T19:12:13.085Z,7.83
2017-10-14T19:14:40.677Z,9.93
2017-10-14T19:17:09.002Z,7.87
2017-10-14T19:19:36.536Z,8.77
2017-10-14T19:22:04.876Z,9.63
2017-10-14T19:24:32.427Z,10.03
2017-10-14T19:27:00.014Z,9.30
2017-10-14T19:29:27.556Z,11.20
2017-10-14T19:31:55.134Z,12.00
2017-10-14T19:34:24.185Z,11.93
2017-10-14T19:36:51.768Z,11.60
2017-10-14T19:39:19.316Z,11.80
2017-10-14T19:41:46.898Z,11.63
2017-10-14T19:44:14.440Z,11.30
2017-10-14T19:46:42.036Z,11.03
2017-10-14T19:49:10.357Z,10.70
2017-10-14T19:51:37.939Z,12.20
2017-10-14T19:54:05.483Z,10.47
2017-10-14T19:56:33.060Z,9.03
2017-10-14T19:59:00.591Z,6.37
2017-10-14T20:01:28.156Z,6.90
2017-10-14T20:03:55.688Z,8.37
2017-10-14T20:06:24.040Z,8.27
2017-10-14T20:08:52.370Z,11.33
2017-10-14T20:11:19.955Z,10.20
2017-10-14T20:13:47.533Z,11.70
2017-10-14T20:16:15.117Z,11.50
2017-10-14T20:18:43.422Z,12.30
2017-10-14T20:21:11.009Z,12.53
2017-10-14T20:23:38.544Z,12.10
2017-10-14T20:26:06.119Z,14.77
2017-10-14T20:28:33.656Z,12.80
2017-10-14T20:31:01.238Z,15.70
2017-10-14T20:33:28.779Z,13.97
2017-10-14T20:35:56.362Z,14.43
2017-10-14T20:38:23.911Z,13.63
2017-10-14T20:40:51.488Z,13.00
2017-10-14T20:43:19.025Z,13.03
2017-10-14T20:45:46.601Z,11.17
2017-10-14T20:48:14.140Z,11.93
2017-10-14T20:50:41.728Z,13.60
2017-10-14T20:53:09.270Z,20.83
2017-10-14T20:55:36.849Z,19.67
2017-10-14T20:58:04.396Z,16.37
2017-10-14T21:00:31.997Z,17.60
2017-10-14T21:02:59.543Z,20.87
2017-10-14T21:05:27.127Z,20.77
2017-10-14T21:07:55.446Z,15.40
2017-10-14T21:10:22.996Z,9.97
2017-10-14T21:12:50.575Z,15.27
2017-10-14T21:15:18.115Z,15.47
2017-10-14T21:17:45.697Z,12.87
2017-10-14T21:20:13.236Z,14.47
2017-10-14T21:22:40.822Z,11.87
2017-10-14T21:25:08.360Z,12.30
2017-10-14T21:27:35.932Z,12.03
2017-10-14T21:30:03.476Z,12.07
2017-10-14T21:32:31.164Z,11.07
2017-10-14T21:34:58.720Z,11.93
2017-10-14T21:37:26.268Z,12.27
2017-10-14T21:39:53.852Z,10.40
2017-10-14T21:42:21.397Z,11.57
2017-10-14T21:44:48.978Z,8.57
2017-10-14T21:47:16.522Z,6.77
2017-10-14T21:49:44.088Z,5.87
2017-10-14T21:52:11.623Z,6.37
2017-10-14T21:54:39.199Z,7.20
2017-10-14T21:57:06.737Z,7.10
2017-10-14T21:59:34.316Z,6.43
2017-10-14T22:02:01.841Z,7.53
2017-10-14T22:04:30.181Z,7.80
2017-10-14T22:06:57.736Z,8.10
2017-10-14T22:09:25.326Z,10.67
2017-10-14T22:11:53.637Z,9.33
2017-10-14T22:14:21.224Z,8.83
2017-10-14T22:16:48.765Z,8.10
2017-10-14T22:19:16.305Z,8.63
2017-10-14T22:21:43.876Z,7.70
2017-10-14T22:24:11.443Z,7.63
2017-10-14T22:26:39.025Z,9.67
2017-10-14T22:29:06.560Z,9.17
2017-10-14T22:31:34.140Z,8.53
2017-10-14T22:34:01.682Z,10.17
2017-10-14T22:36:29.264Z,10.30
2017-10-14T22:38:56.815Z,10.50
2017-10-14T22:41:24.396Z,11.43
2017-10-14T22:43:51.945Z,12.50
2017-10-14T22:46:19.523Z,10.80
2017-10-14T22:48:47.090Z,9.87
2017-10-14T22:51:14.664Z,9.87
2017-10-14T22:53:42.977Z,10.40
2017-10-14T22:56:10.557Z,10.57
2017-10-14T22:58:38.092Z,9.50
2017-10-14T23:01:05.674Z,12.30
2017-10-14T23:03:33.217Z,11.13
2017-10-14T23:06:00.795Z,10.83
2017-10-14T23:08:28.333Z,10.50
2017-10-14T23:10:55.912Z,11.43
2017-10-14T23:13:23.457Z,10.40
2017-10-14T23:15:51.032Z,6.63
2017-10-14T23:18:18.573Z,6.60
2017-10-14T23:20:46.169Z,8.73
2017-10-14T23:23:13.709Z,9.23
2017-10-14T23:25:41.289Z,10.63
2017-10-14T23:28:08.831Z,10.30
2017-10-14T23:30:36.408Z,9.93
2017-10-14T23:33:03.947Z,10.40
2017-10-14T23:35:31.537Z,10.43
2017-10-14T23:37:59.073Z,10.23
2017-10-14T23:40:26.653Z,10.30
2017-10-14T23:42:54.189Z,10.80
2017-10-14T23:45:21.764Z,8.60
2017-10-14T23:47:49.302Z,8.23
2017-10-14T23:50:16.880Z,9.93
2017-10-14T23:52:44.412Z,11.00
2017-10-14T23:55:11.988Z,10.90
2017-10-14T23:57:39.541Z,11.10
